sensor_id;sensor_type;location;lat;lon;timestamp;P1;durP1;ratioP1;P2;durP2;ratioP2
41309;SDS011;27057;51.438;-0.010;2023-05-19T00:02:05;19.85;;;5.47;;
41309;SDS011;27057;51.438;-0.010;2023-05-19T00:04:35;18.00;;;5.88;;
41309;SDS011;27057;51.438;-0.010;2023-05-19T00:07:04;16.13;;;5.65;;
41309;SDS011;27057;51.438;-0.010;2023-05-19T00:09:34;19.17;;;5.82;;
41309;SDS011;27057;51.438;-0.010;2023-05-19T00:12:01;28.05;;;6.25;;
41309;SDS011;27057;51.438;-0.010;2023-05-19T00:14:29;22.17;;;6.25;;
41309;SDS011;27057;51.438;-0.010;2023-05-19T00:16:57;13.75;;;5.97;;
41309;SDS011;27057;51.438;-0.010;2023-05-19T00:19:28;19.45;;;5.78;;
41309;SDS011;27057;51.438;-0.010;2023-05-19T00:21:58;19.45;;;6.47;;
41309;SDS011;27057;51.438;-0.010;2023-05-19T00:24:27;15.48;;;5.47;;
41309;SDS011;27057;51.438;-0.010;2023-05-19T00:26:54;26.10;;;6.63;;
41309;SDS011;27057;51.438;-0.010;2023-05-19T00:29:22;19.55;;;6.05;;
41309;SDS011;27057;51.438;-0.010;2023-05-19T00:31:51;17.25;;;5.68;;
41309;SDS011;27057;51.438;-0.010;2023-05-19T00:34:19;20.85;;;6.13;;
41309;SDS011;27057;51.438;-0.010;2023-05-19T00:37:06;19.85;;;6.85;;
41309;SDS011;27057;51.438;-0.010;2023-05-19T00:39:34;17.23;;;5.95;;
41309;SDS011;27057;51.438;-0.010;2023-05-19T00:42:01;15.88;;;5.28;;
41309;SDS011;27057;51.438;-0.010;2023-05-19T00:44:31;19.73;;;4.93;;
41309;SDS011;27057;51.438;-0.010;2023-05-19T00:46:59;17.20;;;6.28;;
41309;SDS011;27057;51.438;-0.010;2023-05-19T00:49:27;20.17;;;5.75;;
41309;SDS011;27057;51.438;-0.010;2023-05-19T00:51:54;18.63;;;4.38;;
41309;SDS011;27057;51.438;-0.010;2023-05-19T00:54:22;9.60;;;4.15;;
41309;SDS011;27057;51.438;-0.010;2023-05-19T00:56:55;18.73;;;4.60;;
41309;SDS011;27057;51.438;-0.010;2023-05-19T00:59:24;16.45;;;4.45;;
41309;SDS011;27057;51.438;-0.010;2023-05-19T01:01:58;13.38;;;4.28;;
41309;SDS011;27057;51.438;-0.010;2023-05-19T01:04:26;17.42;;;4.95;;
41309;SDS011;27057;51.438;-0.010;2023-05-19T01:06:53;9.68;;;4.50;;
41309;SDS011;27057;51.438;-0.010;2023-05-19T01:09:22;13.07;;;4.30;;
41309;SDS011;27057;51.438;-0.010;2023-05-19T01:11:50;11.60;;;4.57;;
41309;SDS011;27057;51.438;-0.010;2023-05-19T01:14:18;11.82;;;4.82;;
41309;SDS011;27057;51.438;-0.010;2023-05-19T01:17:00;13.90;;;4.95;;
41309;SDS011;27057;51.438;-0.010;2023-05-19T01:22:31;15.45;;;5.07;;
41309;SDS011;27057;51.438;-0.010;2023-05-19T01:27:50;14.23;;;4.32;;
41309;SDS011;27057;51.438;-0.010;2023-05-19T01:30:46;12.52;;;4.55;;
41309;SDS011;27057;51.438;-0.010;2023-05-19T01:33:18;15.63;;;4.68;;
41309;SDS011;27057;51.438;-0.010;2023-05-19T01:35:48;14.18;;;4.95;;
41309;SDS011;27057;51.438;-0.010;2023-05-19T01:38:22;14.70;;;4.75;;
41309;SDS011;27057;51.438;-0.010;2023-05-19T01:40:52;15.93;;;4.95;;
41309;SDS011;27057;51.438;-0.010;2023-05-19T01:43:23;13.43;;;4.32;;
41309;SDS011;27057;51.438;-0.010;2023-05-19T01:45:54;16.73;;;5.32;;
41309;SDS011;27057;51.438;-0.010;2023-05-19T01:48:25;9.27;;;4.85;;
41309;SDS011;27057;51.438;-0.010;2023-05-19T01:50:53;16.63;;;5.38;;
41309;SDS011;27057;51.438;-0.010;2023-05-19T01:53:23;10.20;;;4.35;;
41309;SDS011;27057;51.438;-0.010;2023-05-19T01:55:54;16.55;;;6.18;;
41309;SDS011;27057;51.438;-0.010;2023-05-19T02:00:56;19.70;;;5.32;;
41309;SDS011;27057;51.438;-0.010;2023-05-19T02:06:45;16.50;;;6.00;;
41309;SDS011;27057;51.438;-0.010;2023-05-19T02:09:48;15.45;;;5.85;;
41309;SDS011;27057;51.438;-0.010;2023-05-19T02:12:27;26.77;;;6.22;;
41309;SDS011;27057;51.438;-0.010;2023-05-19T02:15:08;13.60;;;5.75;;
41309;SDS011;27057;51.438;-0.010;2023-05-19T02:17:43;12.68;;;5.97;;
41309;SDS011;27057;51.438;-0.010;2023-05-19T02:20:14;19.40;;;6.45;;
41309;SDS011;27057;51.438;-0.010;2023-05-19T02:22:42;15.98;;;6.28;;
41309;SDS011;27057;51.438;-0.010;2023-05-19T02:25:10;20.20;;;8.05;;
41309;SDS011;27057;51.438;-0.010;2023-05-19T02:27:37;17.23;;;7.28;;
41309;SDS011;27057;51.438;-0.010;2023-05-19T02:30:06;14.77;;;7.25;;
41309;SDS011;27057;51.438;-0.010;2023-05-19T02:32:35;29.98;;;6.70;;
41309;SDS011;27057;51.438;-0.010;2023-05-19T02:35:03;18.17;;;6.40;;
41309;SDS011;27057;51.438;-0.010;2023-05-19T02:37:31;19.92;;;6.10;;
41309;SDS011;27057;51.438;-0.010;2023-05-19T02:39:59;15.98;;;6.32;;
41309;SDS011;27057;51.438;-0.010;2023-05-19T02:42:26;18.27;;;7.30;;
41309;SDS011;27057;51.438;-0.010;2023-05-19T02:44:54;20.73;;;7.32;;
41309;SDS011;27057;51.438;-0.010;2023-05-19T02:47:21;22.52;;;6.63;;
41309;SDS011;27057;51.438;-0.010;2023-05-19T02:49:49;17.77;;;6.05;;
41309;SDS011;27057;51.438;-0.010;2023-05-19T02:52:16;15.90;;;5.90;;
41309;SDS011;27057;51.438;-0.010;2023-05-19T02:54:44;21.50;;;7.05;;
41309;SDS011;27057;51.438;-0.010;2023-05-19T02:57:11;11.88;;;5.93;;
41309;SDS011;27057;51.438;-0.010;2023-05-19T02:59:39;14.98;;;6.35;;
41309;SDS011;27057;51.438;-0.010;2023-05-19T03:02:06;22.80;;;7.05;;
41309;SDS011;27057;51.438;-0.010;2023-05-19T03:04:34;18.45;;;7.20;;
41309;SDS011;27057;51.438;-0.010;2023-05-19T03:07:08;19.45;;;7.03;;
41309;SDS011;27057;51.438;-0.010;2023-05-19T03:09:36;15.18;;;7.95;;
41309;SDS011;27057;51.438;-0.010;2023-05-19T03:12:04;18.95;;;7.93;;
41309;SDS011;27057;51.438;-0.010;2023-05-19T03:14:33;19.30;;;7.68;;
41309;SDS011;27057;51.438;-0.010;2023-05-19T03:17:04;22.05;;;7.72;;
41309;SDS011;27057;51.438;-0.010;2023-05-19T03:19:33;15.10;;;6.93;;
41309;SDS011;27057;51.438;-0.010;2023-05-19T03:22:01;16.77;;;7.18;;
41309;SDS011;27057;51.438;-0.010;2023-05-19T03:24:29;22.08;;;7.13;;
41309;SDS011;27057;51.438;-0.010;2023-05-19T03:26:57;19.77;;;7.93;;
41309;SDS011;27057;51.438;-0.010;2023-05-19T03:29:25;23.77;;;8.18;;
41309;SDS011;27057;51.438;-0.010;2023-05-19T03:31:53;19.83;;;8.48;;
41309;SDS011;27057;51.438;-0.010;2023-05-19T03:34:21;25.48;;;8.02;;
41309;SDS011;27057;51.438;-0.010;2023-05-19T03:36:49;24.42;;;8.10;;
41309;SDS011;27057;51.438;-0.010;2023-05-19T03:39:16;15.93;;;8.15;;
41309;SDS011;27057;51.438;-0.010;2023-05-19T03:41:47;21.65;;;8.57;;
41309;SDS011;27057;51.438;-0.010;2023-05-19T03:44:14;21.70;;;8.32;;
41309;SDS011;27057;51.438;-0.010;2023-05-19T03:46:43;19.70;;;8.55;;
41309;SDS011;27057;51.438;-0.010;2023-05-19T03:49:35;20.77;;;8.70;;
41309;SDS011;27057;51.438;-0.010;2023-05-19T03:52:34;20.75;;;9.13;;
41309;SDS011;27057;51.438;-0.010;2023-05-19T03:55:19;26.00;;;9.38;;
41309;SDS011;27057;51.438;-0.010;2023-05-19T03:57:47;19.25;;;8.95;;
41309;SDS011;27057;51.438;-0.010;2023-05-19T04:00:14;26.05;;;9.43;;
41309;SDS011;27057;51.438;-0.010;2023-05-19T04:02:42;24.80;;;10.15;;
41309;SDS011;27057;51.438;-0.010;2023-05-19T04:05:10;22.77;;;9.20;;
41309;SDS011;27057;51.438;-0.010;2023-05-19T04:07:37;28.02;;;10.55;;
41309;SDS011;27057;51.438;-0.010;2023-05-19T04:10:05;24.10;;;9.23;;
41309;SDS011;27057;51.438;-0.010;2023-05-19T04:12:33;19.92;;;10.00;;
41309;SDS011;27057;51.438;-0.010;2023-05-19T04:15:00;25.40;;;9.10;;
41309;SDS011;27057;51.438;-0.010;2023-05-19T04:17:28;28.90;;;11.23;;
41309;SDS011;27057;51.438;-0.010;2023-05-19T04:19:56;29.48;;;10.85;;
41309;SDS011;27057;51.438;-0.010;2023-05-19T04:22:23;18.63;;;9.85;;
41309;SDS011;27057;51.438;-0.010;2023-05-19T04:24:51;24.67;;;9.57;;
41309;SDS011;27057;51.438;-0.010;2023-05-19T04:27:18;27.20;;;10.73;;
41309;SDS011;27057;51.438;-0.010;2023-05-19T04:29:47;32.60;;;9.82;;
41309;SDS011;27057;51.438;-0.010;2023-05-19T04:32:15;25.60;;;10.70;;
41309;SDS011;27057;51.438;-0.010;2023-05-19T04:34:45;23.73;;;9.93;;
41309;SDS011;27057;51.438;-0.010;2023-05-19T04:37:19;24.83;;;9.77;;
41309;SDS011;27057;51.438;-0.010;2023-05-19T04:39:48;19.92;;;9.88;;
41309;SDS011;27057;51.438;-0.010;2023-05-19T04:42:17;26.02;;;9.50;;
41309;SDS011;27057;51.438;-0.010;2023-05-19T04:44:46;30.80;;;10.13;;
41309;SDS011;27057;51.438;-0.010;2023-05-19T04:47:18;22.60;;;10.63;;
41309;SDS011;27057;51.438;-0.010;2023-05-19T04:49:47;28.65;;;10.30;;
41309;SDS011;27057;51.438;-0.010;2023-05-19T04:52:15;24.48;;;10.05;;
41309;SDS011;27057;51.438;-0.010;2023-05-19T04:54:47;24.40;;;9.65;;
41309;SDS011;27057;51.438;-0.010;2023-05-19T04:57:15;23.35;;;9.15;;
41309;SDS011;27057;51.438;-0.010;2023-05-19T04:59:44;27.70;;;9.70;;
41309;SDS011;27057;51.438;-0.010;2023-05-19T05:02:12;22.88;;;8.85;;
41309;SDS011;27057;51.438;-0.010;2023-05-19T05:04:39;21.08;;;9.30;;
41309;SDS011;27057;51.438;-0.010;2023-05-19T05:07:09;28.80;;;9.82;;
41309;SDS011;27057;51.438;-0.010;2023-05-19T05:09:38;20.65;;;8.68;;
41309;SDS011;27057;51.438;-0.010;2023-05-19T05:12:06;26.65;;;9.10;;
41309;SDS011;27057;51.438;-0.010;2023-05-19T05:14:36;26.13;;;8.80;;
41309;SDS011;27057;51.438;-0.010;2023-05-19T05:17:07;23.55;;;9.45;;
41309;SDS011;27057;51.438;-0.010;2023-05-19T05:19:35;23.52;;;9.00;;
41309;SDS011;27057;51.438;-0.010;2023-05-19T05:22:04;24.95;;;9.75;;
41309;SDS011;27057;51.438;-0.010;2023-05-19T05:24:35;25.13;;;9.15;;
41309;SDS011;27057;51.438;-0.010;2023-05-19T05:27:03;31.42;;;10.30;;
41309;SDS011;27057;51.438;-0.010;2023-05-19T05:29:32;26.40;;;9.00;;
41309;SDS011;27057;51.438;-0.010;2023-05-19T05:32:02;24.70;;;9.10;;
41309;SDS011;27057;51.438;-0.010;2023-05-19T05:34:30;29.70;;;9.07;;
41309;SDS011;27057;51.438;-0.010;2023-05-19T05:36:58;22.98;;;9.00;;
41309;SDS011;27057;51.438;-0.010;2023-05-19T05:39:25;32.67;;;8.60;;
41309;SDS011;27057;51.438;-0.010;2023-05-19T05:41:54;23.83;;;9.43;;
41309;SDS011;27057;51.438;-0.010;2023-05-19T05:44:21;27.30;;;10.35;;
41309;SDS011;27057;51.438;-0.010;2023-05-19T05:46:49;20.30;;;9.35;;
41309;SDS011;27057;51.438;-0.010;2023-05-19T05:49:17;22.65;;;9.80;;
41309;SDS011;27057;51.438;-0.010;2023-05-19T05:51:45;28.58;;;9.38;;
41309;SDS011;27057;51.438;-0.010;2023-05-19T05:54:33;26.83;;;9.60;;
41309;SDS011;27057;51.438;-0.010;2023-05-19T05:57:01;28.90;;;9.00;;
41309;SDS011;27057;51.438;-0.010;2023-05-19T05:59:29;22.70;;;8.57;;
41309;SDS011;27057;51.438;-0.010;2023-05-19T06:01:59;23.02;;;9.40;;
41309;SDS011;27057;51.438;-0.010;2023-05-19T06:04:28;27.23;;;9.10;;
41309;SDS011;27057;51.438;-0.010;2023-05-19T06:06:55;34.38;;;9.77;;
41309;SDS011;27057;51.438;-0.010;2023-05-19T06:09:30;23.23;;;9.75;;
41309;SDS011;27057;51.438;-0.010;2023-05-19T06:11:58;32.58;;;9.82;;
41309;SDS011;27057;51.438;-0.010;2023-05-19T06:14:29;21.08;;;10.27;;
41309;SDS011;27057;51.438;-0.010;2023-05-19T06:17:19;38.58;;;10.32;;
41309;SDS011;27057;51.438;-0.010;2023-05-19T06:19:46;23.55;;;10.93;;
41309;SDS011;27057;51.438;-0.010;2023-05-19T06:22:14;33.28;;;10.85;;
41309;SDS011;27057;51.438;-0.010;2023-05-19T06:24:42;24.45;;;11.25;;
41309;SDS011;27057;51.438;-0.010;2023-05-19T06:27:10;24.60;;;11.25;;
41309;SDS011;27057;51.438;-0.010;2023-05-19T06:29:37;25.60;;;12.23;;
41309;SDS011;27057;51.438;-0.010;2023-05-19T06:32:07;27.30;;;10.63;;
41309;SDS011;27057;51.438;-0.010;2023-05-19T06:34:34;29.42;;;11.10;;
41309;SDS011;27057;51.438;-0.010;2023-05-19T06:37:04;24.10;;;10.07;;
41309;SDS011;27057;51.438;-0.010;2023-05-19T06:39:32;26.48;;;11.50;;
41309;SDS011;27057;51.438;-0.010;2023-05-19T06:42:00;29.20;;;11.68;;
41309;SDS011;27057;51.438;-0.010;2023-05-19T06:44:45;22.35;;;10.05;;
41309;SDS011;27057;51.438;-0.010;2023-05-19T06:47:15;24.90;;;9.82;;
41309;SDS011;27057;51.438;-0.010;2023-05-19T06:49:43;27.92;;;9.85;;
41309;SDS011;27057;51.438;-0.010;2023-05-19T06:52:12;22.98;;;9.77;;
41309;SDS011;27057;51.438;-0.010;2023-05-19T06:54:39;25.15;;;9.80;;
41309;SDS011;27057;51.438;-0.010;2023-05-19T06:57:08;31.35;;;10.80;;
41309;SDS011;27057;51.438;-0.010;2023-05-19T06:59:36;22.88;;;8.77;;
41309;SDS011;27057;51.438;-0.010;2023-05-19T07:02:06;29.02;;;10.63;;
41309;SDS011;27057;51.438;-0.010;2023-05-19T07:04:35;28.35;;;10.40;;
41309;SDS011;27057;51.438;-0.010;2023-05-19T07:07:02;20.55;;;11.07;;
41309;SDS011;27057;51.438;-0.010;2023-05-19T07:09:30;35.63;;;11.43;;
41309;SDS011;27057;51.438;-0.010;2023-05-19T07:11:57;41.08;;;11.00;;
41309;SDS011;27057;51.438;-0.010;2023-05-19T07:14:26;32.53;;;13.57;;
41309;SDS011;27057;51.438;-0.010;2023-05-19T07:16:53;27.75;;;10.82;;
41309;SDS011;27057;51.438;-0.010;2023-05-19T07:19:21;31.52;;;10.43;;
41309;SDS011;27057;51.438;-0.010;2023-05-19T07:21:51;24.75;;;11.80;;
41309;SDS011;27057;51.438;-0.010;2023-05-19T07:24:19;34.53;;;12.63;;
41309;SDS011;27057;51.438;-0.010;2023-05-19T07:26:48;28.58;;;12.85;;
41309;SDS011;27057;51.438;-0.010;2023-05-19T07:29:15;31.13;;;15.07;;
41309;SDS011;27057;51.438;-0.010;2023-05-19T07:31:43;34.58;;;13.45;;
41309;SDS011;27057;51.438;-0.010;2023-05-19T07:34:10;36.47;;;12.68;;
41309;SDS011;27057;51.438;-0.010;2023-05-19T07:36:38;35.17;;;12.48;;
41309;SDS011;27057;51.438;-0.010;2023-05-19T07:39:05;27.50;;;13.02;;
41309;SDS011;27057;51.438;-0.010;2023-05-19T07:41:33;45.20;;;12.75;;
41309;SDS011;27057;51.438;-0.010;2023-05-19T07:44:02;29.40;;;12.45;;
41309;SDS011;27057;51.438;-0.010;2023-05-19T07:46:33;30.55;;;11.50;;
41309;SDS011;27057;51.438;-0.010;2023-05-19T07:49:01;37.10;;;12.38;;
41309;SDS011;27057;51.438;-0.010;2023-05-19T07:51:29;28.05;;;12.52;;
41309;SDS011;27057;51.438;-0.010;2023-05-19T07:53:57;23.85;;;11.15;;
41309;SDS011;27057;51.438;-0.010;2023-05-19T07:56:25;32.90;;;14.40;;
41309;SDS011;27057;51.438;-0.010;2023-05-19T07:58:53;24.60;;;11.60;;
41309;SDS011;27057;51.438;-0.010;2023-05-19T08:01:20;32.83;;;11.80;;
41309;SDS011;27057;51.438;-0.010;2023-05-19T08:03:47;23.08;;;10.82;;
41309;SDS011;27057;51.438;-0.010;2023-05-19T08:06:15;31.15;;;12.65;;
41309;SDS011;27057;51.438;-0.010;2023-05-19T08:08:42;32.33;;;12.13;;
41309;SDS011;27057;51.438;-0.010;2023-05-19T08:11:10;24.85;;;11.43;;
41309;SDS011;27057;51.438;-0.010;2023-05-19T08:13:37;36.35;;;12.52;;
41309;SDS011;27057;51.438;-0.010;2023-05-19T08:16:05;29.65;;;11.90;;
41309;SDS011;27057;51.438;-0.010;2023-05-19T08:18:32;24.25;;;10.63;;
41309;SDS011;27057;51.438;-0.010;2023-05-19T08:21:00;25.50;;;10.05;;
41309;SDS011;27057;51.438;-0.010;2023-05-19T08:23:27;21.17;;;8.60;;
41309;SDS011;27057;51.438;-0.010;2023-05-19T08:25:55;19.70;;;8.63;;
41309;SDS011;27057;51.438;-0.010;2023-05-19T08:28:22;27.70;;;8.13;;
41309;SDS011;27057;51.438;-0.010;2023-05-19T08:30:50;26.80;;;9.32;;
41309;SDS011;27057;51.438;-0.010;2023-05-19T08:33:21;29.45;;;8.63;;
41309;SDS011;27057;51.438;-0.010;2023-05-19T08:35:48;24.50;;;9.25;;
41309;SDS011;27057;51.438;-0.010;2023-05-19T08:38:16;31.15;;;11.18;;
41309;SDS011;27057;51.438;-0.010;2023-05-19T08:40:44;27.92;;;9.73;;
41309;SDS011;27057;51.438;-0.010;2023-05-19T08:43:13;27.27;;;9.25;;
41309;SDS011;27057;51.438;-0.010;2023-05-19T08:45:42;33.38;;;10.23;;
41309;SDS011;27057;51.438;-0.010;2023-05-19T08:48:11;25.90;;;8.07;;
41309;SDS011;27057;51.438;-0.010;2023-05-19T08:50:40;26.15;;;7.90;;
41309;SDS011;27057;51.438;-0.010;2023-05-19T08:53:21;25.42;;;7.13;;
41309;SDS011;27057;51.438;-0.010;2023-05-19T08:56:00;25.83;;;7.35;;
41309;SDS011;27057;51.438;-0.010;2023-05-19T08:58:39;29.20;;;6.95;;
41309;SDS011;27057;51.438;-0.010;2023-05-19T09:01:11;25.98;;;6.82;;
41309;SDS011;27057;51.438;-0.010;2023-05-19T09:03:43;26.77;;;7.28;;
41309;SDS011;27057;51.438;-0.010;2023-05-19T09:06:12;17.33;;;6.63;;
41309;SDS011;27057;51.438;-0.010;2023-05-19T09:08:40;21.35;;;6.43;;
41309;SDS011;27057;51.438;-0.010;2023-05-19T09:11:08;27.73;;;6.30;;
41309;SDS011;27057;51.438;-0.010;2023-05-19T09:13:36;26.77;;;7.03;;
41309;SDS011;27057;51.438;-0.010;2023-05-19T09:16:03;23.80;;;7.55;;
41309;SDS011;27057;51.438;-0.010;2023-05-19T09:18:31;29.35;;;9.18;;
41309;SDS011;27057;51.438;-0.010;2023-05-19T09:20:59;39.70;;;9.85;;
41309;SDS011;27057;51.438;-0.010;2023-05-19T09:23:29;25.98;;;7.82;;
41309;SDS011;27057;51.438;-0.010;2023-05-19T09:26:02;34.65;;;8.20;;
41309;SDS011;27057;51.438;-0.010;2023-05-19T09:28:33;23.52;;;7.97;;
41309;SDS011;27057;51.438;-0.010;2023-05-19T09:31:02;20.08;;;8.27;;
41309;SDS011;27057;51.438;-0.010;2023-05-19T09:33:38;23.77;;;7.47;;
41309;SDS011;27057;51.438;-0.010;2023-05-19T09:36:11;27.60;;;7.78;;
41309;SDS011;27057;51.438;-0.010;2023-05-19T09:38:39;16.48;;;7.10;;
41309;SDS011;27057;51.438;-0.010;2023-05-19T09:41:07;24.42;;;7.53;;
41309;SDS011;27057;51.438;-0.010;2023-05-19T09:43:35;22.88;;;6.90;;
41309;SDS011;27057;51.438;-0.010;2023-05-19T09:46:03;22.10;;;6.45;;
41309;SDS011;27057;51.438;-0.010;2023-05-19T09:48:33;26.17;;;6.57;;
41309;SDS011;27057;51.438;-0.010;2023-05-19T09:51:03;24.42;;;7.10;;
41309;SDS011;27057;51.438;-0.010;2023-05-19T09:53:33;22.98;;;6.60;;
41309;SDS011;27057;51.438;-0.010;2023-05-19T09:56:01;25.95;;;7.30;;
41309;SDS011;27057;51.438;-0.010;2023-05-19T09:58:30;25.67;;;7.88;;
41309;SDS011;27057;51.438;-0.010;2023-05-19T10:01:02;20.45;;;6.43;;
41309;SDS011;27057;51.438;-0.010;2023-05-19T10:03:30;22.80;;;5.63;;
41309;SDS011;27057;51.438;-0.010;2023-05-19T10:06:01;22.40;;;6.03;;
41309;SDS011;27057;51.438;-0.010;2023-05-19T10:08:30;21.70;;;6.47;;
41309;SDS011;27057;51.438;-0.010;2023-05-19T10:10:59;21.20;;;6.78;;
41309;SDS011;27057;51.438;-0.010;2023-05-19T10:13:28;18.45;;;6.53;;
41309;SDS011;27057;51.438;-0.010;2023-05-19T10:15:57;21.27;;;7.40;;
41309;SDS011;27057;51.438;-0.010;2023-05-19T10:18:26;15.82;;;6.95;;
41309;SDS011;27057;51.438;-0.010;2023-05-19T10:20:56;19.45;;;7.20;;
41309;SDS011;27057;51.438;-0.010;2023-05-19T10:23:25;23.67;;;7.20;;
41309;SDS011;27057;51.438;-0.010;2023-05-19T10:25:53;21.83;;;7.50;;
41309;SDS011;27057;51.438;-0.010;2023-05-19T10:28:23;18.30;;;7.78;;
41309;SDS011;27057;51.438;-0.010;2023-05-19T10:30:55;18.25;;;7.40;;
41309;SDS011;27057;51.438;-0.010;2023-05-19T10:34:18;15.23;;;7.05;;
41309;SDS011;27057;51.438;-0.010;2023-05-19T10:39:17;20.05;;;7.15;;
41309;SDS011;27057;51.438;-0.010;2023-05-19T10:47:22;27.02;;;7.43;;
41309;SDS011;27057;51.438;-0.010;2023-05-19T10:49:52;26.60;;;6.97;;
41309;SDS011;27057;51.438;-0.010;2023-05-19T10:52:22;30.33;;;7.78;;
41309;SDS011;27057;51.438;-0.010;2023-05-19T10:54:55;14.63;;;6.30;;
41309;SDS011;27057;51.438;-0.010;2023-05-19T10:57:24;19.23;;;6.53;;
41309;SDS011;27057;51.438;-0.010;2023-05-19T10:59:58;13.13;;;6.07;;
41309;SDS011;27057;51.438;-0.010;2023-05-19T11:02:40;20.45;;;6.22;;
41309;SDS011;27057;51.438;-0.010;2023-05-19T11:05:13;27.70;;;6.15;;
41309;SDS011;27057;51.438;-0.010;2023-05-19T11:07:54;23.40;;;8.27;;
41309;SDS011;27057;51.438;-0.010;2023-05-19T11:10:23;21.17;;;6.15;;
41309;SDS011;27057;51.438;-0.010;2023-05-19T11:12:50;14.40;;;5.68;;
41309;SDS011;27057;51.438;-0.010;2023-05-19T11:15:18;14.00;;;6.63;;
41309;SDS011;27057;51.438;-0.010;2023-05-19T11:17:52;9.55;;;4.85;;
41309;SDS011;27057;51.438;-0.010;2023-05-19T11:20:23;17.52;;;5.68;;
41309;SDS011;27057;51.438;-0.010;2023-05-19T11:23:07;15.32;;;5.95;;
41309;SDS011;27057;51.438;-0.010;2023-05-19T11:25:39;13.45;;;4.90;;
41309;SDS011;27057;51.438;-0.010;2023-05-19T11:28:07;19.88;;;4.80;;
41309;SDS011;27057;51.438;-0.010;2023-05-19T11:30:41;16.23;;;5.65;;
41309;SDS011;27057;51.438;-0.010;2023-05-19T11:33:10;13.48;;;5.15;;
41309;SDS011;27057;51.438;-0.010;2023-05-19T11:35:39;12.48;;;5.53;;
41309;SDS011;27057;51.438;-0.010;2023-05-19T11:38:07;14.10;;;4.65;;
41309;SDS011;27057;51.438;-0.010;2023-05-19T11:40:36;24.85;;;5.32;;
41309;SDS011;27057;51.438;-0.010;2023-05-19T11:43:04;14.77;;;5.13;;
41309;SDS011;27057;51.438;-0.010;2023-05-19T11:45:32;25.77;;;6.50;;
41309;SDS011;27057;51.438;-0.010;2023-05-19T11:48:00;14.48;;;6.15;;
41309;SDS011;27057;51.438;-0.010;2023-05-19T11:50:31;15.38;;;5.50;;
41309;SDS011;27057;51.438;-0.010;2023-05-19T11:52:59;19.70;;;5.53;;
41309;SDS011;27057;51.438;-0.010;2023-05-19T11:55:28;15.90;;;6.32;;
41309;SDS011;27057;51.438;-0.010;2023-05-19T12:00:37;12.27;;;6.60;;
41309;SDS011;27057;51.438;-0.010;2023-05-19T12:03:07;17.75;;;5.88;;
41309;SDS011;27057;51.438;-0.010;2023-05-19T12:05:36;14.32;;;5.22;;
41309;SDS011;27057;51.438;-0.010;2023-05-19T12:08:10;11.27;;;4.97;;
41309;SDS011;27057;51.438;-0.010;2023-05-19T12:10:38;12.07;;;5.38;;
41309;SDS011;27057;51.438;-0.010;2023-05-19T12:13:06;15.77;;;5.20;;
41309;SDS011;27057;51.438;-0.010;2023-05-19T12:15:35;21.75;;;5.70;;
41309;SDS011;27057;51.438;-0.010;2023-05-19T12:18:03;18.45;;;5.78;;
41309;SDS011;27057;51.438;-0.010;2023-05-19T12:20:30;9.80;;;4.57;;
41309;SDS011;27057;51.438;-0.010;2023-05-19T12:23:01;14.57;;;5.32;;
41309;SDS011;27057;51.438;-0.010;2023-05-19T12:25:29;14.73;;;4.90;;
41309;SDS011;27057;51.438;-0.010;2023-05-19T12:27:59;20.27;;;5.40;;
41309;SDS011;27057;51.438;-0.010;2023-05-19T12:30:30;13.73;;;5.38;;
41309;SDS011;27057;51.438;-0.010;2023-05-19T12:32:58;8.60;;;4.70;;
41309;SDS011;27057;51.438;-0.010;2023-05-19T12:35:28;12.20;;;4.47;;
41309;SDS011;27057;51.438;-0.010;2023-05-19T12:38:05;14.98;;;4.40;;
41309;SDS011;27057;51.438;-0.010;2023-05-19T12:40:33;11.85;;;4.32;;
41309;SDS011;27057;51.438;-0.010;2023-05-19T12:43:02;16.40;;;4.80;;
41309;SDS011;27057;51.438;-0.010;2023-05-19T12:45:33;9.35;;;3.50;;
41309;SDS011;27057;51.438;-0.010;2023-05-19T12:48:03;10.20;;;3.85;;
41309;SDS011;27057;51.438;-0.010;2023-05-19T12:50:32;13.73;;;4.53;;
41309;SDS011;27057;51.438;-0.010;2023-05-19T12:53:00;10.52;;;3.65;;
41309;SDS011;27057;51.438;-0.010;2023-05-19T12:55:28;13.18;;;4.00;;
41309;SDS011;27057;51.438;-0.010;2023-05-19T12:57:56;11.85;;;5.47;;
41309;SDS011;27057;51.438;-0.010;2023-05-19T13:00:24;13.02;;;4.38;;
41309;SDS011;27057;51.438;-0.010;2023-05-19T13:03:05;14.70;;;4.65;;
41309;SDS011;27057;51.438;-0.010;2023-05-19T13:05:38;9.85;;;4.40;;
41309;SDS011;27057;51.438;-0.010;2023-05-19T13:08:07;15.52;;;5.90;;
41309;SDS011;27057;51.438;-0.010;2023-05-19T13:10:38;15.30;;;5.57;;
41309;SDS011;27057;51.438;-0.010;2023-05-19T13:13:06;19.60;;;5.78;;
41309;SDS011;27057;51.438;-0.010;2023-05-19T13:15:36;16.55;;;5.30;;
41309;SDS011;27057;51.438;-0.010;2023-05-19T13:18:06;17.50;;;6.85;;
41309;SDS011;27057;51.438;-0.010;2023-05-19T13:20:36;13.63;;;4.90;;
41309;SDS011;27057;51.438;-0.010;2023-05-19T13:23:05;18.42;;;5.78;;
41309;SDS011;27057;51.438;-0.010;2023-05-19T13:25:32;20.75;;;5.57;;
41309;SDS011;27057;51.438;-0.010;2023-05-19T13:28:01;14.23;;;5.57;;
41309;SDS011;27057;51.438;-0.010;2023-05-19T13:30:31;19.83;;;5.85;;
41309;SDS011;27057;51.438;-0.010;2023-05-19T13:33:01;17.23;;;6.72;;
41309;SDS011;27057;51.438;-0.010;2023-05-19T13:35:29;17.50;;;6.18;;
41309;SDS011;27057;51.438;-0.010;2023-05-19T13:38:03;19.45;;;6.70;;
41309;SDS011;27057;51.438;-0.010;2023-05-19T13:40:32;23.52;;;7.15;;
41309;SDS011;27057;51.438;-0.010;2023-05-19T13:43:01;16.00;;;6.30;;
41309;SDS011;27057;51.438;-0.010;2023-05-19T13:45:29;17.63;;;5.90;;
41309;SDS011;27057;51.438;-0.010;2023-05-19T13:47:57;11.55;;;5.00;;
41309;SDS011;27057;51.438;-0.010;2023-05-19T13:50:24;14.65;;;5.22;;
41309;SDS011;27057;51.438;-0.010;2023-05-19T13:52:52;18.38;;;5.45;;
41309;SDS011;27057;51.438;-0.010;2023-05-19T13:55:20;9.85;;;4.88;;
41309;SDS011;27057;51.438;-0.010;2023-05-19T13:57:48;13.98;;;4.47;;
41309;SDS011;27057;51.438;-0.010;2023-05-19T14:00:16;15.80;;;5.25;;
41309;SDS011;27057;51.438;-0.010;2023-05-19T14:02:45;15.65;;;5.20;;
41309;SDS011;27057;51.438;-0.010;2023-05-19T14:05:13;15.77;;;4.57;;
41309;SDS011;27057;51.438;-0.010;2023-05-19T14:07:40;12.85;;;4.57;;
41309;SDS011;27057;51.438;-0.010;2023-05-19T14:10:08;9.98;;;5.15;;
41309;SDS011;27057;51.438;-0.010;2023-05-19T14:12:36;10.38;;;4.40;;
41309;SDS011;27057;51.438;-0.010;2023-05-19T14:15:24;13.38;;;5.18;;
41309;SDS011;27057;51.438;-0.010;2023-05-19T14:17:52;12.50;;;5.60;;
41309;SDS011;27057;51.438;-0.010;2023-05-19T14:20:20;12.40;;;4.22;;
41309;SDS011;27057;51.438;-0.010;2023-05-19T14:22:47;10.45;;;4.57;;
41309;SDS011;27057;51.438;-0.010;2023-05-19T14:25:15;14.52;;;4.55;;
41309;SDS011;27057;51.438;-0.010;2023-05-19T14:27:42;11.95;;;5.43;;
41309;SDS011;27057;51.438;-0.010;2023-05-19T14:30:10;13.23;;;5.03;;
41309;SDS011;27057;51.438;-0.010;2023-05-19T14:32:38;22.88;;;5.20;;
41309;SDS011;27057;51.438;-0.010;2023-05-19T14:35:05;14.63;;;4.88;;
41309;SDS011;27057;51.438;-0.010;2023-05-19T14:37:33;16.80;;;4.88;;
41309;SDS011;27057;51.438;-0.010;2023-05-19T14:40:01;11.13;;;4.40;;
41309;SDS011;27057;51.438;-0.010;2023-05-19T14:42:30;15.55;;;6.07;;
41309;SDS011;27057;51.438;-0.010;2023-05-19T14:44:57;13.80;;;4.97;;
41309;SDS011;27057;51.438;-0.010;2023-05-19T14:47:25;14.50;;;5.40;;
41309;SDS011;27057;51.438;-0.010;2023-05-19T14:49:53;21.45;;;4.95;;
41309;SDS011;27057;51.438;-0.010;2023-05-19T14:52:20;15.32;;;5.82;;
41309;SDS011;27057;51.438;-0.010;2023-05-19T14:54:48;16.50;;;5.28;;
41309;SDS011;27057;51.438;-0.010;2023-05-19T14:57:16;15.02;;;4.72;;